Main page
METAR-TAF:

METAR-TAF

Airports :

Blackpool Airport

Blackpool, England

latitude: 53-46N, longitude: 003-02W, elevation: 10 m

Current weather observation

The report was made 2 hours and 1 minutes ago, at 20:50 UTC
Wind 18 kt from the East/Southeast
Temperature 5°C
Humidity 81%
Pressure 999 hPa
Visibility 10 km or more
Scattered clouds at a height of 2000 ft

METAR: EGNH 212050Z 11018KT 9999 SCT020 05/02 Q0999

Time: 22:51 (22:51 UTC)

Forecast

The report was made 5 hours and 51 minutes ago, at 17:00 UTC
Forecast valid from 21 at 18 UTC to 21 at 21 UTC
Wind 11 kt from the East
Visibility 10 km or more
Broken clouds at a height of 2500 ft
Probability 30% :
Temporary
from 21 at 18 UTC to 21 at 21 UTC
Wind 15 kt from the East/Southeast with gusts up to 25 kt

TAF: EGNH 211700Z 2118/2121 10011KT 9999 BKN025 PROB30 TEMPO 2118/2121 12015G25KT

Weather observations and forecasts of more than 4000 airports (METAR and TAF reports).

The available stations are represented by yellow and red dots on the map.

Hover mouse over dot to see the name of the station.

Then click to see weather observations and forecasts.

To change the map : click on the green buttons with a black cross to zoom in, on the green button with a dash to zoom out, or on the green arrows for adjacent maps.


METAR-TAF: